GB-0332 weather

Bowerchalke Airfield
Bowerchalke, England, United Kingdom

Public forecast

Using degrees Celsius for public forecast. Weather courtesy of forecast.io.

METAR (pilot weather report)

Closest report is Bournemouth Airport, 13.5 nm (24.9 km) SSE. Retrieved 2019/07/22 06:20 UTC (23 minutes ago):

EGHH 220620Z 24007KT 9999 BKN007 18/17 Q1022

TAF (pilot weather forecast)

Forecast is more than 12 hours old.

Closest forecast is Bournemouth Airport, 13.5 nm (24.9 km) SSE. Retrieved 2013/12/01 21:21 UTC (6 years ago):

TAF TAF EGHH 010016Z 3021/0106 CNL